createdAt,value
2019-05-26T00:04:03.992Z,10.90
2019-05-26T00:08:08.201Z,10.90
2019-05-26T00:12:15.726Z,10.90
2019-05-26T00:16:18.303Z,10.90
2019-05-26T00:20:22.507Z,10.80
2019-05-26T00:24:26.774Z,10.80
2019-05-26T00:28:30.998Z,10.80
2019-05-26T00:32:35.319Z,10.80
2019-05-26T00:36:39.960Z,10.80
2019-05-26T00:40:44.281Z,10.80
2019-05-26T00:44:48.495Z,10.70
2019-05-26T00:48:52.804Z,10.70
2019-05-26T00:52:57.117Z,10.60
2019-05-26T00:57:01.423Z,10.60
2019-05-26T01:01:05.841Z,10.50
2019-05-26T01:05:10.451Z,10.50
2019-05-26T01:09:14.740Z,10.40
2019-05-26T01:13:19.000Z,10.40
2019-05-26T01:17:24.453Z,10.40
2019-05-26T01:21:29.180Z,10.40
2019-05-26T01:25:33.410Z,10.40
2019-05-26T01:29:37.609Z,10.30
2019-05-26T01:33:41.832Z,10.30
2019-05-26T01:37:46.747Z,10.30
2019-05-26T01:41:51.025Z,10.30
2019-05-26T01:45:55.355Z,10.20
2019-05-26T01:49:59.647Z,10.20
2019-05-26T01:54:03.906Z,10.20
2019-05-26T01:58:08.127Z,10.20
2019-05-26T02:02:12.467Z,10.20
2019-05-26T02:06:16.778Z,10.20
2019-05-26T02:10:21.179Z,10.20
2019-05-26T02:14:25.395Z,10.20
2019-05-26T02:18:29.701Z,10.20
2019-05-26T02:22:33.945Z,10.20
2019-05-26T02:26:38.212Z,10.10
2019-05-26T02:30:42.507Z,10.20
2019-05-26T02:34:46.716Z,10.20
2019-05-26T02:39:01.849Z,10.20
2019-05-26T02:42:56.787Z,10.20
2019-05-26T02:47:01.123Z,10.20
2019-05-26T02:51:05.665Z,10.20
2019-05-26T02:55:10.669Z,10.10
2019-05-26T02:59:14.895Z,10.20
2019-05-26T03:03:19.138Z,10.10
2019-05-26T03:07:25.962Z,10.20
2019-05-26T03:11:32.178Z,10.20
2019-05-26T03:15:36.367Z,10.20
2019-05-26T03:19:42.075Z,10.20
2019-05-26T03:23:48.131Z,10.20
2019-05-26T03:27:52.352Z,10.20
2019-05-26T03:31:56.576Z,10.20
2019-05-26T03:36:00.784Z,10.30
2019-05-26T03:40:06.617Z,10.30
2019-05-26T03:44:10.869Z,10.30
2019-05-26T03:48:15.113Z,10.40
2019-05-26T03:52:19.421Z,10.40
2019-05-26T03:56:23.612Z,10.50
2019-05-26T04:00:27.865Z,10.50
2019-05-26T04:04:32.088Z,10.50
2019-05-26T04:08:36.302Z,10.60
2019-05-26T04:12:40.514Z,10.60
2019-05-26T04:16:44.708Z,10.70
2019-05-26T04:20:48.928Z,10.80
2019-05-26T04:24:53.214Z,10.80
2019-05-26T04:28:57.436Z,10.90
2019-05-26T04:33:01.648Z,10.90
2019-05-26T04:37:05.851Z,11.00
2019-05-26T04:41:10.059Z,11.10
2019-05-26T04:45:14.282Z,11.20
2019-05-26T04:49:18.538Z,11.20
2019-05-26T04:53:22.784Z,11.30
2019-05-26T04:57:27.107Z,11.40
2019-05-26T05:01:31.299Z,11.50
2019-05-26T05:05:35.512Z,11.50
2019-05-26T05:09:39.745Z,11.60
2019-05-26T05:13:43.958Z,11.70
2019-05-26T05:17:48.242Z,11.90
2019-05-26T05:21:52.463Z,12.00
2019-05-26T05:25:56.694Z,12.10
2019-05-26T05:30:00.904Z,12.20
2019-05-26T05:34:05.135Z,12.30
2019-05-26T05:38:09.357Z,12.40
2019-05-26T05:42:13.566Z,12.50
2019-05-26T05:46:17.810Z,12.60
2019-05-26T05:50:22.130Z,12.70
2019-05-26T05:54:26.463Z,12.80
2019-05-26T05:58:30.699Z,12.90
2019-05-26T06:02:34.962Z,13.00
2019-05-26T06:06:39.271Z,13.20
2019-05-26T06:10:43.517Z,13.30
2019-05-26T06:14:47.783Z,13.40
2019-05-26T06:18:52.027Z,13.50
2019-05-26T06:22:56.219Z,13.60
2019-05-26T06:27:00.440Z,13.70
2019-05-26T06:31:04.686Z,13.80
2019-05-26T06:35:09.221Z,13.90
2019-05-26T06:39:13.458Z,14.00
2019-05-26T06:43:17.689Z,14.10
2019-05-26T06:47:22.003Z,14.20
2019-05-26T06:51:26.316Z,14.30
2019-05-26T06:55:30.543Z,14.40
2019-05-26T06:59:34.771Z,14.50
2019-05-26T07:03:39.097Z,14.60
2019-05-26T07:07:43.308Z,14.80
2019-05-26T07:11:57.087Z,14.90
2019-05-26T07:15:53.414Z,15.10
2019-05-26T07:19:57.734Z,15.20
2019-05-26T07:24:02.068Z,15.30
2019-05-26T07:28:06.291Z,15.40
2019-05-26T07:32:10.521Z,15.50
2019-05-26T07:36:14.740Z,15.70
2019-05-26T07:40:19.159Z,15.80
2019-05-26T07:44:23.407Z,15.90
2019-05-26T07:48:27.640Z,15.90
2019-05-26T07:52:31.863Z,16.00
2019-05-26T07:56:36.099Z,16.10
2019-05-26T08:00:40.327Z,16.20
2019-05-26T08:04:44.553Z,16.30
2019-05-26T08:08:48.740Z,16.40
2019-05-26T08:12:53.060Z,16.50
2019-05-26T08:16:57.328Z,16.60
2019-05-26T08:21:01.542Z,16.70
2019-05-26T08:25:06.121Z,16.70
2019-05-26T08:29:10.315Z,16.70
2019-05-26T08:33:14.548Z,16.80
2019-05-26T08:37:18.811Z,16.80
2019-05-26T08:41:23.150Z,16.80
2019-05-26T08:45:27.472Z,16.80
2019-05-26T08:49:31.699Z,16.80
2019-05-26T08:53:36.005Z,16.90
2019-05-26T08:57:40.212Z,17.00
2019-05-26T09:01:44.466Z,17.10
2019-05-26T09:05:48.983Z,17.20
2019-05-26T09:09:53.193Z,17.30
2019-05-26T09:13:57.411Z,17.40
2019-05-26T09:18:01.882Z,17.40
2019-05-26T09:22:06.207Z,17.40
2019-05-26T09:26:10.539Z,17.40
2019-05-26T09:30:15.169Z,17.50
2019-05-26T09:34:19.363Z,17.40
2019-05-26T09:38:23.599Z,17.50
2019-05-26T09:42:27.818Z,17.50
2019-05-26T09:46:32.061Z,17.70
2019-05-26T09:50:36.394Z,17.80
2019-05-26T09:54:40.586Z,18.10
2019-05-26T09:58:44.823Z,18.40
2019-05-26T10:02:49.049Z,18.60
2019-05-26T10:06:53.279Z,18.90
2019-05-26T10:10:57.515Z,19.10
2019-05-26T10:15:01.822Z,19.20
2019-05-26T10:19:06.039Z,19.30
2019-05-26T10:23:10.286Z,19.40
2019-05-26T10:27:14.890Z,19.50
2019-05-26T10:31:19.103Z,19.40
2019-05-26T10:35:26.525Z,19.50
2019-05-26T10:39:30.739Z,19.50
2019-05-26T10:43:47.031Z,19.60
2019-05-26T10:47:41.075Z,19.70
2019-05-26T10:51:45.296Z,19.80
2019-05-26T10:55:49.501Z,19.90
2019-05-26T10:59:53.756Z,20.10
2019-05-26T11:03:58.276Z,20.30
2019-05-26T11:08:02.504Z,20.50
2019-05-26T11:12:07.624Z,20.60
2019-05-26T11:16:11.889Z,20.90
2019-05-26T11:20:16.443Z,21.30
2019-05-26T11:24:21.841Z,21.50
2019-05-26T11:28:26.082Z,21.80
2019-05-26T11:32:30.370Z,21.90
2019-05-26T11:36:53.781Z,22.00
2019-05-26T11:40:58.683Z,22.10
2019-05-26T11:45:03.345Z,22.00
2019-05-26T11:49:07.668Z,22.00
2019-05-26T11:53:12.013Z,21.90
2019-05-26T11:57:16.269Z,21.90
2019-05-26T12:01:22.789Z,21.90
2019-05-26T12:05:26.364Z,21.90
2019-05-26T12:09:30.595Z,21.90
2019-05-26T12:13:36.782Z,22.00
2019-05-26T12:17:40.736Z,22.00
2019-05-26T12:21:45.051Z,22.10
2019-05-26T12:25:49.261Z,22.10
2019-05-26T12:29:53.482Z,22.30
2019-05-26T12:33:57.714Z,22.50
2019-05-26T12:38:02.009Z,22.70
2019-05-26T12:42:06.544Z,22.90
2019-05-26T12:46:10.782Z,23.00
2019-05-26T12:50:15.660Z,23.00
2019-05-26T12:54:19.886Z,23.00
2019-05-26T12:58:24.129Z,22.90
2019-05-26T13:02:28.356Z,22.90
2019-05-26T13:06:32.562Z,22.90
2019-05-26T13:10:36.885Z,23.00
2019-05-26T13:14:41.130Z,23.10
2019-05-26T13:18:45.355Z,23.20
2019-05-26T13:22:49.582Z,23.20
2019-05-26T13:26:53.808Z,23.20
2019-05-26T13:30:58.918Z,23.30
2019-05-26T13:35:03.197Z,23.30
2019-05-26T13:39:08.775Z,23.30
2019-05-26T13:43:12.987Z,23.40
2019-05-26T13:47:25.689Z,23.50
2019-05-26T13:51:23.204Z,23.70
2019-05-26T13:55:27.443Z,23.80
2019-05-26T13:59:31.680Z,23.90
2019-05-26T14:03:35.926Z,23.80
2019-05-26T14:07:40.153Z,23.80
2019-05-26T14:11:44.621Z,23.70
2019-05-26T14:15:50.016Z,23.60
2019-05-26T14:19:55.444Z,23.50
2019-05-26T14:23:59.712Z,23.60
2019-05-26T14:28:04.108Z,23.60
2019-05-26T14:32:08.316Z,23.60
2019-05-26T14:36:12.552Z,23.60
2019-05-26T14:40:18.955Z,23.60
2019-05-26T14:44:23.204Z,23.50
2019-05-26T14:48:27.469Z,23.50
2019-05-26T14:52:31.686Z,23.40
2019-05-26T14:56:35.979Z,23.30
2019-05-26T15:00:40.224Z,23.30
2019-05-26T15:04:44.456Z,23.20
2019-05-26T15:13:04.299Z,23.00
2019-05-26T15:17:08.523Z,22.90
2019-05-26T15:26:17.176Z,22.80
2019-05-26T15:30:21.496Z,22.60
2019-05-26T15:34:25.766Z,22.60
2019-05-26T15:38:42.015Z,22.50
2019-05-26T15:42:35.877Z,22.50
2019-05-26T15:46:40.166Z,22.40
2019-05-26T15:50:44.423Z,22.30
2019-05-26T15:54:49.238Z,22.30
2019-05-26T15:58:53.453Z,22.30
2019-05-26T16:02:57.817Z,22.30
2019-05-26T16:07:02.066Z,22.30
2019-05-26T16:11:06.300Z,22.40
2019-05-26T16:15:11.189Z,22.40
2019-05-26T16:19:15.686Z,22.30
2019-05-26T16:23:20.148Z,22.30
2019-05-26T16:27:25.239Z,22.10
2019-05-26T16:31:29.451Z,22.00
2019-05-26T16:35:33.812Z,21.90
2019-05-26T16:39:38.065Z,21.80
2019-05-26T16:43:42.299Z,21.70
2019-05-26T16:47:46.560Z,21.70
2019-05-26T16:51:50.824Z,21.60
2019-05-26T16:55:55.081Z,21.50
2019-05-26T16:59:59.315Z,21.50
2019-05-26T17:04:03.531Z,21.40
2019-05-26T17:08:07.893Z,21.40
2019-05-26T17:12:12.135Z,21.30
2019-05-26T17:16:16.417Z,21.30
2019-05-26T17:20:20.871Z,21.30
2019-05-26T17:24:25.120Z,21.20
2019-05-26T17:28:29.338Z,21.20
2019-05-26T17:32:33.593Z,21.10
2019-05-26T17:36:37.843Z,21.10
2019-05-26T17:40:42.084Z,21.10
2019-05-26T17:44:46.314Z,21.10
2019-05-26T17:48:50.722Z,21.10
2019-05-26T17:52:55.110Z,21.10
2019-05-26T17:56:59.445Z,21.10
2019-05-26T18:01:03.761Z,21.10
2019-05-26T18:05:08.846Z,21.10
2019-05-26T18:09:14.097Z,21.00
2019-05-26T18:13:18.490Z,21.00
2019-05-26T18:17:22.857Z,21.00
2019-05-26T18:21:27.211Z,20.90
2019-05-26T18:25:31.432Z,20.90
2019-05-26T18:29:35.732Z,20.90
2019-05-26T18:33:40.077Z,20.90
2019-05-26T18:37:44.378Z,20.90
2019-05-26T18:41:48.700Z,20.80
2019-05-26T18:45:52.909Z,20.80
2019-05-26T18:49:57.269Z,20.80
2019-05-26T18:54:01.517Z,20.70
2019-05-26T18:58:05.758Z,20.70
2019-05-26T19:02:10.064Z,20.70
2019-05-26T19:06:14.421Z,20.60
2019-05-26T19:10:19.461Z,20.60
2019-05-26T19:14:23.791Z,20.60
2019-05-26T19:18:28.102Z,20.50
2019-05-26T19:22:32.384Z,20.50
2019-05-26T19:26:36.687Z,20.40
2019-05-26T19:30:40.918Z,20.40
2019-05-26T19:34:45.245Z,20.30
2019-05-26T19:38:49.547Z,20.30
2019-05-26T19:42:53.809Z,20.30
2019-05-26T19:46:58.101Z,20.20
2019-05-26T19:51:02.351Z,20.20
2019-05-26T19:55:07.277Z,20.10
2019-05-26T19:59:11.511Z,20.10
2019-05-26T20:03:15.997Z,20.10
2019-05-26T20:07:20.319Z,20.00
2019-05-26T20:11:24.650Z,20.00
2019-05-26T20:15:28.960Z,20.00
2019-05-26T20:19:33.225Z,20.00
2019-05-26T20:23:37.480Z,19.90
2019-05-26T20:27:41.712Z,19.90
2019-05-26T20:31:45.944Z,19.90
2019-05-26T20:35:50.283Z,19.80
2019-05-26T20:39:54.603Z,19.80
2019-05-26T20:43:58.851Z,19.80
2019-05-26T20:48:03.139Z,19.80
2019-05-26T20:52:07.370Z,19.70
2019-05-26T20:56:11.695Z,19.70
2019-05-26T21:00:17.681Z,19.70
2019-05-26T21:04:21.897Z,19.70
2019-05-26T21:08:26.095Z,19.70
2019-05-26T21:12:30.337Z,19.70
2019-05-26T21:16:34.573Z,19.70
2019-05-26T21:20:38.802Z,19.60
2019-05-26T21:24:43.053Z,19.60
2019-05-26T21:28:47.293Z,19.60
2019-05-26T21:32:51.546Z,19.60
2019-05-26T21:36:55.809Z,19.60
2019-05-26T21:41:01.138Z,19.50
2019-05-26T21:45:06.008Z,19.50
2019-05-26T21:49:10.340Z,19.50
2019-05-26T21:53:15.703Z,19.40
2019-05-26T21:57:20.150Z,19.40
2019-05-26T22:01:24.479Z,19.40
2019-05-26T22:05:28.690Z,19.30
2019-05-26T22:09:33.238Z,19.30
2019-05-26T22:13:37.508Z,19.20
2019-05-26T22:17:41.752Z,19.20
2019-05-26T22:21:46.022Z,19.20
2019-05-26T22:25:50.284Z,19.20
2019-05-26T22:29:54.500Z,19.20
2019-05-26T22:33:58.799Z,19.20
2019-05-26T22:38:02.980Z,19.10
2019-05-26T22:42:07.214Z,19.10
2019-05-26T22:46:11.424Z,19.10
2019-05-26T22:50:15.655Z,19.10
2019-05-26T22:54:19.888Z,19.10
2019-05-26T22:58:24.123Z,19.00
2019-05-26T23:02:28.444Z,19.00
2019-05-26T23:06:32.698Z,19.00
2019-05-26T23:10:36.936Z,19.00
2019-05-26T23:14:41.167Z,19.00
2019-05-26T23:18:45.410Z,18.90
2019-05-26T23:22:49.637Z,18.90
2019-05-26T23:26:53.857Z,18.90
2019-05-26T23:30:58.087Z,18.90
2019-05-26T23:35:02.481Z,18.80
2019-05-26T23:39:07.225Z,18.80
2019-05-26T23:43:11.497Z,18.70
2019-05-26T23:47:15.735Z,18.70
2019-05-26T23:51:19.963Z,18.70
2019-05-26T23:55:24.184Z,18.60
2019-05-26T23:59:28.423Z,18.50
